sensor_id;sensor_type;location;lat;lon;timestamp;P1;durP1;ratioP1;P2;durP2;ratioP2
10007;SDS011;5043;41.766;26.204;2024-03-23T00:51:15;7.10;;;5.30;;
10007;SDS011;5043;41.766;26.204;2024-03-23T00:56:07;5.75;;;4.43;;
10007;SDS011;5043;41.766;26.204;2024-03-23T00:58:32;8.57;;;6.15;;
10007;SDS011;5043;41.766;26.204;2024-03-23T01:00:58;8.48;;;6.85;;
10007;SDS011;5043;41.766;26.204;2024-03-23T01:03:23;9.82;;;6.13;;
10007;SDS011;5043;41.766;26.204;2024-03-23T01:05:49;6.38;;;5.13;;
10007;SDS011;5043;41.766;26.204;2024-03-23T01:08:14;6.57;;;5.05;;
10007;SDS011;5043;41.766;26.204;2024-03-23T01:10:40;6.00;;;5.00;;
10007;SDS011;5043;41.766;26.204;2024-03-23T01:13:05;9.48;;;5.40;;
10007;SDS011;5043;41.766;26.204;2024-03-23T01:15:31;7.97;;;5.20;;
10007;SDS011;5043;41.766;26.204;2024-03-23T01:17:56;8.20;;;5.78;;
10007;SDS011;5043;41.766;26.204;2024-03-23T01:20:22;8.05;;;5.93;;
10007;SDS011;5043;41.766;26.204;2024-03-23T01:22:47;14.02;;;8.57;;
10007;SDS011;5043;41.766;26.204;2024-03-23T01:25:13;13.88;;;8.75;;
10007;SDS011;5043;41.766;26.204;2024-03-23T01:27:38;10.88;;;7.70;;
10007;SDS011;5043;41.766;26.204;2024-03-23T01:30:04;13.75;;;8.48;;
10007;SDS011;5043;41.766;26.204;2024-03-23T01:32:30;15.38;;;6.45;;
10007;SDS011;5043;41.766;26.204;2024-03-23T01:34:55;6.78;;;5.00;;
10007;SDS011;5043;41.766;26.204;2024-03-23T01:37:20;9.18;;;5.43;;
10007;SDS011;5043;41.766;26.204;2024-03-23T01:39:46;4.97;;;4.28;;
10007;SDS011;5043;41.766;26.204;2024-03-23T01:42:12;7.90;;;4.65;;
10007;SDS011;5043;41.766;26.204;2024-03-23T01:44:37;4.20;;;3.83;;
10007;SDS011;5043;41.766;26.204;2024-03-23T01:47:03;5.10;;;3.50;;
10007;SDS011;5043;41.766;26.204;2024-03-23T01:49:28;4.07;;;3.67;;
10007;SDS011;5043;41.766;26.204;2024-03-23T01:51:54;7.25;;;4.15;;
10007;SDS011;5043;41.766;26.204;2024-03-23T01:54:20;5.75;;;3.92;;
10007;SDS011;5043;41.766;26.204;2024-03-23T01:56:46;4.85;;;4.28;;
10007;SDS011;5043;41.766;26.204;2024-03-23T01:59:12;7.22;;;4.93;;
10007;SDS011;5043;41.766;26.204;2024-03-23T02:01:38;9.52;;;4.68;;
10007;SDS011;5043;41.766;26.204;2024-03-23T02:04:03;7.80;;;4.78;;
10007;SDS011;5043;41.766;26.204;2024-03-23T02:06:29;5.63;;;4.78;;
10007;SDS011;5043;41.766;26.204;2024-03-23T02:08:55;8.00;;;5.25;;
10007;SDS011;5043;41.766;26.204;2024-03-23T02:11:21;5.45;;;4.70;;
10007;SDS011;5043;41.766;26.204;2024-03-23T02:13:46;5.07;;;4.45;;
10007;SDS011;5043;41.766;26.204;2024-03-23T02:16:12;6.50;;;5.07;;
10007;SDS011;5043;41.766;26.204;2024-03-23T02:18:38;8.07;;;5.43;;
10007;SDS011;5043;41.766;26.204;2024-03-23T02:21:04;6.47;;;4.65;;
10007;SDS011;5043;41.766;26.204;2024-03-23T02:23:29;7.22;;;4.70;;
10007;SDS011;5043;41.766;26.204;2024-03-23T02:25:55;6.43;;;5.05;;
10007;SDS011;5043;41.766;26.204;2024-03-23T02:28:20;4.30;;;3.53;;
10007;SDS011;5043;41.766;26.204;2024-03-23T02:30:48;6.80;;;4.63;;
10007;SDS011;5043;41.766;26.204;2024-03-23T02:33:14;6.95;;;4.43;;
10007;SDS011;5043;41.766;26.204;2024-03-23T02:35:39;5.63;;;4.03;;
10007;SDS011;5043;41.766;26.204;2024-03-23T02:38:04;4.90;;;4.43;;
10007;SDS011;5043;41.766;26.204;2024-03-23T02:40:30;5.65;;;4.30;;
10007;SDS011;5043;41.766;26.204;2024-03-23T02:42:55;4.82;;;4.25;;
10007;SDS011;5043;41.766;26.204;2024-03-23T02:45:21;6.93;;;4.47;;
10007;SDS011;5043;41.766;26.204;2024-03-23T02:47:46;5.43;;;4.85;;
10007;SDS011;5043;41.766;26.204;2024-03-23T02:50:12;5.68;;;4.38;;
10007;SDS011;5043;41.766;26.204;2024-03-23T02:52:37;9.38;;;4.85;;
10007;SDS011;5043;41.766;26.204;2024-03-23T02:55:03;6.30;;;4.53;;
10007;SDS011;5043;41.766;26.204;2024-03-23T02:57:29;5.88;;;4.20;;
10007;SDS011;5043;41.766;26.204;2024-03-23T02:59:55;6.13;;;4.50;;
10007;SDS011;5043;41.766;26.204;2024-03-23T03:02:20;7.15;;;5.20;;
10007;SDS011;5043;41.766;26.204;2024-03-23T03:04:46;8.23;;;5.00;;
10007;SDS011;5043;41.766;26.204;2024-03-23T03:07:12;5.95;;;5.20;;
10007;SDS011;5043;41.766;26.204;2024-03-23T03:09:38;9.15;;;5.78;;
10007;SDS011;5043;41.766;26.204;2024-03-23T03:12:07;6.20;;;4.95;;
10007;SDS011;5043;41.766;26.204;2024-03-23T03:14:33;5.22;;;4.47;;
10007;SDS011;5043;41.766;26.204;2024-03-23T03:16:59;5.25;;;4.38;;
10007;SDS011;5043;41.766;26.204;2024-03-23T03:19:25;9.02;;;5.20;;
10007;SDS011;5043;41.766;26.204;2024-03-23T03:21:51;8.27;;;4.95;;
10007;SDS011;5043;41.766;26.204;2024-03-23T03:24:16;8.60;;;5.35;;
10007;SDS011;5043;41.766;26.204;2024-03-23T03:26:42;8.75;;;6.35;;
10007;SDS011;5043;41.766;26.204;2024-03-23T03:29:07;15.60;;;7.55;;
10007;SDS011;5043;41.766;26.204;2024-03-23T03:31:33;10.45;;;7.32;;
10007;SDS011;5043;41.766;26.204;2024-03-23T03:33:58;18.73;;;7.80;;
10007;SDS011;5043;41.766;26.204;2024-03-23T03:36:24;11.63;;;6.93;;
10007;SDS011;5043;41.766;26.204;2024-03-23T03:38:49;11.70;;;7.88;;
10007;SDS011;5043;41.766;26.204;2024-03-23T03:41:15;8.90;;;7.05;;
10007;SDS011;5043;41.766;26.204;2024-03-23T03:43:40;10.13;;;5.75;;
10007;SDS011;5043;41.766;26.204;2024-03-23T03:46:06;9.60;;;6.20;;
10007;SDS011;5043;41.766;26.204;2024-03-23T03:48:33;9.77;;;6.45;;
10007;SDS011;5043;41.766;26.204;2024-03-23T03:50:59;9.18;;;6.28;;
10007;SDS011;5043;41.766;26.204;2024-03-23T03:53:25;14.82;;;6.63;;
10007;SDS011;5043;41.766;26.204;2024-03-23T03:55:51;10.32;;;7.30;;
10007;SDS011;5043;41.766;26.204;2024-03-23T03:58:16;11.68;;;7.10;;
10007;SDS011;5043;41.766;26.204;2024-03-23T04:00:42;12.75;;;8.45;;
10007;SDS011;5043;41.766;26.204;2024-03-23T04:03:07;15.68;;;8.93;;
10007;SDS011;5043;41.766;26.204;2024-03-23T04:05:33;15.48;;;8.70;;
10007;SDS011;5043;41.766;26.204;2024-03-23T04:07:58;19.75;;;9.20;;
10007;SDS011;5043;41.766;26.204;2024-03-23T04:10:23;11.23;;;8.57;;
10007;SDS011;5043;41.766;26.204;2024-03-23T04:12:49;15.10;;;9.00;;
10007;SDS011;5043;41.766;26.204;2024-03-23T04:15:15;12.80;;;8.75;;
10007;SDS011;5043;41.766;26.204;2024-03-23T04:17:41;14.23;;;9.77;;
10007;SDS011;5043;41.766;26.204;2024-03-23T04:20:08;11.63;;;7.97;;
10007;SDS011;5043;41.766;26.204;2024-03-23T04:22:36;11.67;;;8.27;;
10007;SDS011;5043;41.766;26.204;2024-03-23T04:25:02;11.88;;;8.30;;
10007;SDS011;5043;41.766;26.204;2024-03-23T04:27:32;10.43;;;8.15;;
10007;SDS011;5043;41.766;26.204;2024-03-23T04:30:00;12.50;;;6.97;;
10007;SDS011;5043;41.766;26.204;2024-03-23T04:32:26;9.52;;;7.07;;
10007;SDS011;5043;41.766;26.204;2024-03-23T04:34:52;10.30;;;7.85;;
10007;SDS011;5043;41.766;26.204;2024-03-23T04:37:18;11.32;;;6.57;;
10007;SDS011;5043;41.766;26.204;2024-03-23T04:39:43;10.15;;;6.72;;
10007;SDS011;5043;41.766;26.204;2024-03-23T04:42:09;13.60;;;8.40;;
10007;SDS011;5043;41.766;26.204;2024-03-23T04:44:34;23.10;;;12.82;;
10007;SDS011;5043;41.766;26.204;2024-03-23T04:47:00;22.90;;;12.75;;
10007;SDS011;5043;41.766;26.204;2024-03-23T04:49:25;31.02;;;18.58;;
10007;SDS011;5043;41.766;26.204;2024-03-23T04:51:51;24.60;;;16.08;;
10007;SDS011;5043;41.766;26.204;2024-03-23T04:54:16;14.82;;;10.70;;
10007;SDS011;5043;41.766;26.204;2024-03-23T04:56:42;10.57;;;8.05;;
10007;SDS011;5043;41.766;26.204;2024-03-23T04:59:07;7.82;;;6.88;;
10007;SDS011;5043;41.766;26.204;2024-03-23T05:01:34;6.60;;;5.95;;
10007;SDS011;5043;41.766;26.204;2024-03-23T05:03:59;8.60;;;6.90;;
10007;SDS011;5043;41.766;26.204;2024-03-23T05:06:25;11.73;;;9.02;;
10007;SDS011;5043;41.766;26.204;2024-03-23T05:08:51;15.35;;;11.27;;
10007;SDS011;5043;41.766;26.204;2024-03-23T05:11:17;18.67;;;12.63;;
10007;SDS011;5043;41.766;26.204;2024-03-23T05:13:43;19.02;;;12.77;;
10007;SDS011;5043;41.766;26.204;2024-03-23T05:16:09;23.77;;;15.98;;
10007;SDS011;5043;41.766;26.204;2024-03-23T05:18:34;23.13;;;17.30;;
10007;SDS011;5043;41.766;26.204;2024-03-23T05:21:00;21.70;;;16.45;;
10007;SDS011;5043;41.766;26.204;2024-03-23T05:23:27;23.67;;;18.15;;
10007;SDS011;5043;41.766;26.204;2024-03-23T05:25:53;22.38;;;17.75;;
10007;SDS011;5043;41.766;26.204;2024-03-23T05:28:19;31.75;;;20.98;;
10007;SDS011;5043;41.766;26.204;2024-03-23T05:30:52;28.23;;;19.55;;
10007;SDS011;5043;41.766;26.204;2024-03-23T05:33:19;26.08;;;17.23;;
10007;SDS011;5043;41.766;26.204;2024-03-23T05:35:45;23.10;;;16.17;;
10007;SDS011;5043;41.766;26.204;2024-03-23T05:38:11;20.17;;;15.07;;
10007;SDS011;5043;41.766;26.204;2024-03-23T05:40:36;18.02;;;13.30;;
10007;SDS011;5043;41.766;26.204;2024-03-23T05:43:05;18.15;;;13.48;;
10007;SDS011;5043;41.766;26.204;2024-03-23T05:45:34;21.30;;;13.40;;
10007;SDS011;5043;41.766;26.204;2024-03-23T05:47:59;21.80;;;14.43;;
10007;SDS011;5043;41.766;26.204;2024-03-23T05:50:25;21.25;;;14.18;;
10007;SDS011;5043;41.766;26.204;2024-03-23T05:52:50;17.55;;;13.15;;
10007;SDS011;5043;41.766;26.204;2024-03-23T05:55:16;20.90;;;14.30;;
10007;SDS011;5043;41.766;26.204;2024-03-23T05:57:41;16.70;;;12.40;;
10007;SDS011;5043;41.766;26.204;2024-03-23T06:00:07;19.63;;;14.20;;
10007;SDS011;5043;41.766;26.204;2024-03-23T06:02:43;20.75;;;16.10;;
10007;SDS011;5043;41.766;26.204;2024-03-23T06:05:12;18.33;;;14.98;;
10007;SDS011;5043;41.766;26.204;2024-03-23T06:07:37;20.13;;;15.55;;
10007;SDS011;5043;41.766;26.204;2024-03-23T06:10:03;18.40;;;15.55;;
10007;SDS011;5043;41.766;26.204;2024-03-23T06:12:30;22.63;;;14.65;;
10007;SDS011;5043;41.766;26.204;2024-03-23T06:14:56;19.60;;;15.93;;
10007;SDS011;5043;41.766;26.204;2024-03-23T06:17:21;14.15;;;12.65;;
10007;SDS011;5043;41.766;26.204;2024-03-23T06:19:46;17.02;;;12.15;;
10007;SDS011;5043;41.766;26.204;2024-03-23T06:22:12;17.65;;;12.77;;
10007;SDS011;5043;41.766;26.204;2024-03-23T06:24:38;14.90;;;10.88;;
10007;SDS011;5043;41.766;26.204;2024-03-23T06:27:03;14.07;;;11.18;;
10007;SDS011;5043;41.766;26.204;2024-03-23T06:29:29;17.80;;;10.60;;
10007;SDS011;5043;41.766;26.204;2024-03-23T06:31:55;17.17;;;10.95;;
10007;SDS011;5043;41.766;26.204;2024-03-23T06:34:20;12.70;;;10.63;;
10007;SDS011;5043;41.766;26.204;2024-03-23T06:36:49;14.73;;;12.00;;
10007;SDS011;5043;41.766;26.204;2024-03-23T06:39:15;16.40;;;12.13;;
10007;SDS011;5043;41.766;26.204;2024-03-23T06:41:41;16.00;;;11.93;;
10007;SDS011;5043;41.766;26.204;2024-03-23T06:44:07;18.02;;;13.15;;
10007;SDS011;5043;41.766;26.204;2024-03-23T06:46:33;19.13;;;13.40;;
10007;SDS011;5043;41.766;26.204;2024-03-23T06:48:58;18.30;;;11.95;;
10007;SDS011;5043;41.766;26.204;2024-03-23T06:51:24;16.90;;;12.43;;
10007;SDS011;5043;41.766;26.204;2024-03-23T06:53:49;13.00;;;11.10;;
10007;SDS011;5043;41.766;26.204;2024-03-23T06:56:15;18.55;;;12.85;;
10007;SDS011;5043;41.766;26.204;2024-03-23T06:58:40;16.73;;;12.73;;
10007;SDS011;5043;41.766;26.204;2024-03-23T07:01:06;14.55;;;11.80;;
10007;SDS011;5043;41.766;26.204;2024-03-23T07:03:32;16.30;;;12.90;;
10007;SDS011;5043;41.766;26.204;2024-03-23T07:05:57;19.42;;;12.43;;
10007;SDS011;5043;41.766;26.204;2024-03-23T07:08:24;17.85;;;13.50;;
10007;SDS011;5043;41.766;26.204;2024-03-23T07:10:49;15.60;;;11.70;;
10007;SDS011;5043;41.766;26.204;2024-03-23T07:13:14;15.82;;;11.75;;
10007;SDS011;5043;41.766;26.204;2024-03-23T07:15:40;15.00;;;12.50;;
10007;SDS011;5043;41.766;26.204;2024-03-23T07:18:05;16.63;;;12.57;;
10007;SDS011;5043;41.766;26.204;2024-03-23T07:20:31;16.98;;;11.68;;
10007;SDS011;5043;41.766;26.204;2024-03-23T07:22:57;33.97;;;25.90;;
10007;SDS011;5043;41.766;26.204;2024-03-23T07:25:22;16.27;;;11.43;;
10007;SDS011;5043;41.766;26.204;2024-03-23T07:27:48;15.02;;;11.80;;
10007;SDS011;5043;41.766;26.204;2024-03-23T07:30:14;14.18;;;11.90;;
10007;SDS011;5043;41.766;26.204;2024-03-23T07:32:40;14.68;;;11.00;;
10007;SDS011;5043;41.766;26.204;2024-03-23T07:35:06;13.82;;;11.70;;
10007;SDS011;5043;41.766;26.204;2024-03-23T07:37:31;16.35;;;11.38;;
10007;SDS011;5043;41.766;26.204;2024-03-23T07:39:57;13.45;;;11.10;;
10007;SDS011;5043;41.766;26.204;2024-03-23T07:42:23;12.35;;;10.70;;
10007;SDS011;5043;41.766;26.204;2024-03-23T07:44:50;15.05;;;11.50;;
10007;SDS011;5043;41.766;26.204;2024-03-23T07:47:16;12.43;;;9.73;;
10007;SDS011;5043;41.766;26.204;2024-03-23T07:49:41;12.73;;;9.15;;
10007;SDS011;5043;41.766;26.204;2024-03-23T07:52:07;9.45;;;8.15;;
10007;SDS011;5043;41.766;26.204;2024-03-23T07:54:33;9.38;;;8.00;;
10007;SDS011;5043;41.766;26.204;2024-03-23T07:56:58;15.45;;;9.95;;
10007;SDS011;5043;41.766;26.204;2024-03-23T07:59:24;12.30;;;8.60;;
10007;SDS011;5043;41.766;26.204;2024-03-23T08:01:50;10.10;;;7.90;;
10007;SDS011;5043;41.766;26.204;2024-03-23T08:04:16;9.95;;;7.80;;
10007;SDS011;5043;41.766;26.204;2024-03-23T08:06:41;12.50;;;8.13;;
10007;SDS011;5043;41.766;26.204;2024-03-23T08:09:07;9.40;;;7.45;;
10007;SDS011;5043;41.766;26.204;2024-03-23T08:11:32;14.02;;;9.27;;
10007;SDS011;5043;41.766;26.204;2024-03-23T08:13:59;14.25;;;6.65;;
10007;SDS011;5043;41.766;26.204;2024-03-23T08:16:26;8.02;;;6.28;;
10007;SDS011;5043;41.766;26.204;2024-03-23T08:18:52;7.85;;;6.18;;
10007;SDS011;5043;41.766;26.204;2024-03-23T08:21:18;8.43;;;6.45;;
10007;SDS011;5043;41.766;26.204;2024-03-23T08:23:44;8.07;;;6.35;;
10007;SDS011;5043;41.766;26.204;2024-03-23T08:26:11;6.40;;;5.20;;
10007;SDS011;5043;41.766;26.204;2024-03-23T08:28:38;7.00;;;5.72;;
10007;SDS011;5043;41.766;26.204;2024-03-23T08:31:07;7.40;;;5.82;;
10007;SDS011;5043;41.766;26.204;2024-03-23T08:33:34;6.68;;;5.75;;
10007;SDS011;5043;41.766;26.204;2024-03-23T08:36:04;8.90;;;5.35;;
10007;SDS011;5043;41.766;26.204;2024-03-23T08:38:31;8.10;;;6.18;;
10007;SDS011;5043;41.766;26.204;2024-03-23T08:43:33;9.77;;;6.45;;
10007;SDS011;5043;41.766;26.204;2024-03-23T08:46:04;9.65;;;7.25;;
10007;SDS011;5043;41.766;26.204;2024-03-23T08:48:54;9.70;;;6.82;;
10007;SDS011;5043;41.766;26.204;2024-03-23T08:51:19;7.15;;;5.63;;
10007;SDS011;5043;41.766;26.204;2024-03-23T08:53:44;6.35;;;5.13;;
10007;SDS011;5043;41.766;26.204;2024-03-23T08:56:10;10.02;;;6.57;;
10007;SDS011;5043;41.766;26.204;2024-03-23T08:58:37;10.60;;;6.85;;
10007;SDS011;5043;41.766;26.204;2024-03-23T09:01:10;8.25;;;4.88;;
10007;SDS011;5043;41.766;26.204;2024-03-23T09:03:38;5.13;;;4.15;;
10007;SDS011;5043;41.766;26.204;2024-03-23T09:06:07;5.22;;;4.22;;
10007;SDS011;5043;41.766;26.204;2024-03-23T09:08:34;4.95;;;3.45;;
10007;SDS011;5043;41.766;26.204;2024-03-23T09:11:04;5.28;;;3.80;;
10007;SDS011;5043;41.766;26.204;2024-03-23T09:13:34;5.15;;;3.78;;
10007;SDS011;5043;41.766;26.204;2024-03-23T09:16:00;5.65;;;3.67;;
10007;SDS011;5043;41.766;26.204;2024-03-23T09:18:26;5.25;;;4.00;;
10007;SDS011;5043;41.766;26.204;2024-03-23T09:20:52;4.07;;;3.67;;
10007;SDS011;5043;41.766;26.204;2024-03-23T09:23:21;7.80;;;4.28;;
10007;SDS011;5043;41.766;26.204;2024-03-23T09:25:46;4.85;;;3.85;;
10007;SDS011;5043;41.766;26.204;2024-03-23T09:28:12;8.65;;;3.83;;
10007;SDS011;5043;41.766;26.204;2024-03-23T09:30:37;5.30;;;3.65;;
10007;SDS011;5043;41.766;26.204;2024-03-23T09:33:09;8.93;;;4.57;;
10007;SDS011;5043;41.766;26.204;2024-03-23T09:35:41;4.10;;;3.72;;
10007;SDS011;5043;41.766;26.204;2024-03-23T09:38:09;10.13;;;4.60;;
10007;SDS011;5043;41.766;26.204;2024-03-23T09:40:44;5.03;;;4.40;;
10007;SDS011;5043;41.766;26.204;2024-03-23T09:43:10;6.28;;;4.32;;
10007;SDS011;5043;41.766;26.204;2024-03-23T09:45:40;4.47;;;3.65;;
10007;SDS011;5043;41.766;26.204;2024-03-23T09:48:09;5.20;;;4.07;;
10007;SDS011;5043;41.766;26.204;2024-03-23T09:50:36;5.50;;;3.97;;
10007;SDS011;5043;41.766;26.204;2024-03-23T09:53:03;5.72;;;4.38;;
10007;SDS011;5043;41.766;26.204;2024-03-23T09:55:29;6.03;;;4.80;;
10007;SDS011;5043;41.766;26.204;2024-03-23T09:57:55;3.95;;;3.55;;
10007;SDS011;5043;41.766;26.204;2024-03-23T10:00:21;4.57;;;3.45;;
10007;SDS011;5043;41.766;26.204;2024-03-23T10:02:47;2.63;;;2.30;;
10007;SDS011;5043;41.766;26.204;2024-03-23T10:05:22;3.00;;;2.70;;
10007;SDS011;5043;41.766;26.204;2024-03-23T10:07:51;3.97;;;2.80;;
10007;SDS011;5043;41.766;26.204;2024-03-23T10:10:17;6.22;;;2.60;;
10007;SDS011;5043;41.766;26.204;2024-03-23T10:12:44;3.17;;;2.80;;
10007;SDS011;5043;41.766;26.204;2024-03-23T10:15:15;3.58;;;2.28;;
10007;SDS011;5043;41.766;26.204;2024-03-23T10:17:44;3.00;;;2.55;;
10007;SDS011;5043;41.766;26.204;2024-03-23T10:20:10;2.42;;;2.22;;
10007;SDS011;5043;41.766;26.204;2024-03-23T10:22:38;2.53;;;2.33;;
10007;SDS011;5043;41.766;26.204;2024-03-23T10:25:08;4.97;;;2.45;;
10007;SDS011;5043;41.766;26.204;2024-03-23T10:27:34;2.58;;;2.38;;
10007;SDS011;5043;41.766;26.204;2024-03-23T10:32:36;2.42;;;2.20;;
10007;SDS011;5043;41.766;26.204;2024-03-23T10:37:44;2.22;;;2.00;;
10007;SDS011;5043;41.766;26.204;2024-03-23T10:40:11;2.03;;;1.92;;
10007;SDS011;5043;41.766;26.204;2024-03-23T10:42:38;2.65;;;2.45;;
10007;SDS011;5043;41.766;26.204;2024-03-23T10:45:05;3.03;;;2.70;;
10007;SDS011;5043;41.766;26.204;2024-03-23T10:47:33;6.22;;;3.20;;
10007;SDS011;5043;41.766;26.204;2024-03-23T10:50:01;5.03;;;3.60;;
10007;SDS011;5043;41.766;26.204;2024-03-23T10:52:28;2.85;;;2.40;;
10007;SDS011;5043;41.766;26.204;2024-03-23T10:54:54;2.03;;;1.67;;
10007;SDS011;5043;41.766;26.204;2024-03-23T10:57:34;2.53;;;2.10;;
10007;SDS011;5043;41.766;26.204;2024-03-23T11:00:10;2.38;;;1.80;;
10007;SDS011;5043;41.766;26.204;2024-03-23T11:02:37;2.45;;;2.25;;
10007;SDS011;5043;41.766;26.204;2024-03-23T11:05:20;2.60;;;2.40;;
10007;SDS011;5043;41.766;26.204;2024-03-23T11:07:51;2.10;;;1.92;;
10007;SDS011;5043;41.766;26.204;2024-03-23T11:10:28;5.25;;;2.45;;
10007;SDS011;5043;41.766;26.204;2024-03-23T11:12:58;2.63;;;2.42;;
10007;SDS011;5043;41.766;26.204;2024-03-23T11:15:44;3.45;;;2.65;;
10007;SDS011;5043;41.766;26.204;2024-03-23T11:18:09;2.30;;;2.10;;
10007;SDS011;5043;41.766;26.204;2024-03-23T11:20:37;2.65;;;2.15;;
10007;SDS011;5043;41.766;26.204;2024-03-23T11:23:04;2.78;;;2.30;;
10007;SDS011;5043;41.766;26.204;2024-03-23T11:25:30;4.60;;;2.05;;
10007;SDS011;5043;41.766;26.204;2024-03-23T11:27:56;2.20;;;2.00;;
10007;SDS011;5043;41.766;26.204;2024-03-23T11:30:24;3.50;;;1.95;;
10007;SDS011;5043;41.766;26.204;2024-03-23T11:32:51;2.03;;;1.70;;
10007;SDS011;5043;41.766;26.204;2024-03-23T11:35:38;2.22;;;1.83;;
10007;SDS011;5043;41.766;26.204;2024-03-23T11:40:44;4.38;;;3.28;;
10007;SDS011;5043;41.766;26.204;2024-03-23T11:43:14;5.60;;;1.63;;
10007;SDS011;5043;41.766;26.204;2024-03-23T11:45:50;2.00;;;1.80;;
10007;SDS011;5043;41.766;26.204;2024-03-23T11:48:20;1.85;;;1.60;;
10007;SDS011;5043;41.766;26.204;2024-03-23T11:50:53;1.88;;;1.73;;
10007;SDS011;5043;41.766;26.204;2024-03-23T11:53:23;1.50;;;1.40;;
10007;SDS011;5043;41.766;26.204;2024-03-23T11:58:16;2.30;;;2.08;;
10007;SDS011;5043;41.766;26.204;2024-03-23T12:00:48;2.50;;;2.30;;
10007;SDS011;5043;41.766;26.204;2024-03-23T12:03:18;2.40;;;2.15;;
10007;SDS011;5043;41.766;26.204;2024-03-23T12:05:51;2.72;;;1.90;;
10007;SDS011;5043;41.766;26.204;2024-03-23T12:08:24;2.25;;;2.05;;
10007;SDS011;5043;41.766;26.204;2024-03-23T12:10:54;2.67;;;2.17;;
10007;SDS011;5043;41.766;26.204;2024-03-23T12:13:29;3.28;;;2.08;;
10007;SDS011;5043;41.766;26.204;2024-03-23T12:15:56;3.20;;;2.33;;
10007;SDS011;5043;41.766;26.204;2024-03-23T12:18:39;3.20;;;2.40;;
10007;SDS011;5043;41.766;26.204;2024-03-23T12:21:07;2.97;;;2.40;;
10007;SDS011;5043;41.766;26.204;2024-03-23T12:23:34;2.72;;;2.50;;
10007;SDS011;5043;41.766;26.204;2024-03-23T12:26:00;2.65;;;2.45;;
10007;SDS011;5043;41.766;26.204;2024-03-23T12:28:26;6.75;;;2.42;;
10007;SDS011;5043;41.766;26.204;2024-03-23T12:30:52;2.40;;;2.20;;
10007;SDS011;5043;41.766;26.204;2024-03-23T12:33:19;2.42;;;2.22;;
10007;SDS011;5043;41.766;26.204;2024-03-23T12:35:46;2.17;;;1.83;;
10007;SDS011;5043;41.766;26.204;2024-03-23T12:38:12;2.42;;;2.20;;
10007;SDS011;5043;41.766;26.204;2024-03-23T12:40:38;2.42;;;2.22;;
10007;SDS011;5043;41.766;26.204;2024-03-23T12:43:04;2.83;;;2.25;;
10007;SDS011;5043;41.766;26.204;2024-03-23T12:45:29;2.53;;;2.13;;
10007;SDS011;5043;41.766;26.204;2024-03-23T12:47:55;4.82;;;2.58;;
10007;SDS011;5043;41.766;26.204;2024-03-23T12:50:21;2.63;;;2.42;;
10007;SDS011;5043;41.766;26.204;2024-03-23T12:52:47;4.65;;;2.90;;
10007;SDS011;5043;41.766;26.204;2024-03-23T12:55:13;2.90;;;2.70;;
10007;SDS011;5043;41.766;26.204;2024-03-23T12:57:39;3.95;;;2.60;;
10007;SDS011;5043;41.766;26.204;2024-03-23T13:00:06;3.47;;;2.20;;
10007;SDS011;5043;41.766;26.204;2024-03-23T13:02:34;2.40;;;2.30;;
10007;SDS011;5043;41.766;26.204;2024-03-23T13:05:00;2.97;;;2.67;;
10007;SDS011;5043;41.766;26.204;2024-03-23T13:07:26;3.13;;;2.40;;
10007;SDS011;5043;41.766;26.204;2024-03-23T13:09:52;2.90;;;2.70;;
10007;SDS011;5043;41.766;26.204;2024-03-23T13:12:21;3.10;;;2.90;;
10007;SDS011;5043;41.766;26.204;2024-03-23T13:14:47;2.97;;;2.78;;
10007;SDS011;5043;41.766;26.204;2024-03-23T13:17:13;2.97;;;2.67;;
10007;SDS011;5043;41.766;26.204;2024-03-23T13:19:39;5.68;;;2.70;;
10007;SDS011;5043;41.766;26.204;2024-03-23T13:22:05;3.65;;;2.20;;
10007;SDS011;5043;41.766;26.204;2024-03-23T13:24:31;2.65;;;2.45;;
10007;SDS011;5043;41.766;26.204;2024-03-23T13:26:57;2.60;;;2.40;;
10007;SDS011;5043;41.766;26.204;2024-03-23T13:29:23;3.55;;;2.30;;
10007;SDS011;5043;41.766;26.204;2024-03-23T13:31:49;3.78;;;2.53;;
10007;SDS011;5043;41.766;26.204;2024-03-23T13:34:17;2.38;;;2.20;;
10007;SDS011;5043;41.766;26.204;2024-03-23T13:36:43;2.50;;;2.30;;
10007;SDS011;5043;41.766;26.204;2024-03-23T13:39:10;3.95;;;2.50;;
10007;SDS011;5043;41.766;26.204;2024-03-23T13:41:39;2.58;;;2.35;;
10007;SDS011;5043;41.766;26.204;2024-03-23T13:44:06;2.40;;;2.30;;
10007;SDS011;5043;41.766;26.204;2024-03-23T13:46:32;2.17;;;2.08;;
10007;SDS011;5043;41.766;26.204;2024-03-23T13:48:57;3.50;;;2.47;;
10007;SDS011;5043;41.766;26.204;2024-03-23T13:51:24;4.75;;;2.70;;
10007;SDS011;5043;41.766;26.204;2024-03-23T13:53:55;6.43;;;3.55;;
10007;SDS011;5043;41.766;26.204;2024-03-23T13:56:22;2.72;;;2.20;;
10007;SDS011;5043;41.766;26.204;2024-03-23T13:58:48;2.80;;;2.42;;
10007;SDS011;5043;41.766;26.204;2024-03-23T14:01:14;4.18;;;2.75;;
10007;SDS011;5043;41.766;26.204;2024-03-23T14:03:41;4.18;;;3.53;;
10007;SDS011;5043;41.766;26.204;2024-03-23T14:06:07;2.10;;;1.90;;
10007;SDS011;5043;41.766;26.204;2024-03-23T14:08:34;2.38;;;2.17;;
10007;SDS011;5043;41.766;26.204;2024-03-23T14:11:02;2.65;;;2.28;;
10007;SDS011;5043;41.766;26.204;2024-03-23T14:13:28;2.40;;;2.20;;
10007;SDS011;5043;41.766;26.204;2024-03-23T14:15:54;2.33;;;2.13;;
10007;SDS011;5043;41.766;26.204;2024-03-23T14:18:20;2.40;;;2.20;;
10007;SDS011;5043;41.766;26.204;2024-03-23T14:20:47;2.63;;;2.40;;
10007;SDS011;5043;41.766;26.204;2024-03-23T14:23:13;2.20;;;2.00;;
10007;SDS011;5043;41.766;26.204;2024-03-23T14:25:39;4.53;;;2.17;;
10007;SDS011;5043;41.766;26.204;2024-03-23T14:28:04;3.45;;;2.30;;
10007;SDS011;5043;41.766;26.204;2024-03-23T14:30:30;2.30;;;2.10;;
10007;SDS011;5043;41.766;26.204;2024-03-23T14:32:56;2.65;;;2.17;;
10007;SDS011;5043;41.766;26.204;2024-03-23T14:35:22;2.80;;;2.30;;
10007;SDS011;5043;41.766;26.204;2024-03-23T14:37:48;4.47;;;2.17;;
10007;SDS011;5043;41.766;26.204;2024-03-23T14:40:14;3.95;;;2.00;;
10007;SDS011;5043;41.766;26.204;2024-03-23T14:42:40;3.35;;;1.80;;
10007;SDS011;5043;41.766;26.204;2024-03-23T14:45:06;2.28;;;2.08;;
10007;SDS011;5043;41.766;26.204;2024-03-23T14:47:32;4.45;;;2.55;;
10007;SDS011;5043;41.766;26.204;2024-03-23T14:49:58;3.60;;;2.65;;
10007;SDS011;5043;41.766;26.204;2024-03-23T14:52:24;3.13;;;2.50;;
10007;SDS011;5043;41.766;26.204;2024-03-23T14:54:49;3.70;;;2.60;;
10007;SDS011;5043;41.766;26.204;2024-03-23T14:57:15;7.82;;;2.72;;
10007;SDS011;5043;41.766;26.204;2024-03-23T14:59:41;3.22;;;2.63;;
10007;SDS011;5043;41.766;26.204;2024-03-23T15:02:09;2.55;;;2.30;;
10007;SDS011;5043;41.766;26.204;2024-03-23T15:04:35;4.68;;;2.75;;
10007;SDS011;5043;41.766;26.204;2024-03-23T15:07:01;2.80;;;2.50;;
10007;SDS011;5043;41.766;26.204;2024-03-23T15:09:29;2.85;;;2.10;;
10007;SDS011;5043;41.766;26.204;2024-03-23T15:11:54;2.55;;;2.35;;
10007;SDS011;5043;41.766;26.204;2024-03-23T15:14:21;2.70;;;2.30;;
10007;SDS011;5043;41.766;26.204;2024-03-23T15:16:46;2.40;;;2.20;;
10007;SDS011;5043;41.766;26.204;2024-03-23T15:19:14;2.47;;;2.28;;
10007;SDS011;5043;41.766;26.204;2024-03-23T15:21:42;4.55;;;2.40;;
10007;SDS011;5043;41.766;26.204;2024-03-23T15:24:08;3.10;;;2.80;;
10007;SDS011;5043;41.766;26.204;2024-03-23T15:26:36;2.65;;;2.45;;
10007;SDS011;5043;41.766;26.204;2024-03-23T15:29:02;3.45;;;2.38;;
10007;SDS011;5043;41.766;26.204;2024-03-23T15:31:28;2.88;;;2.42;;
10007;SDS011;5043;41.766;26.204;2024-03-23T15:33:57;3.72;;;2.65;;
10007;SDS011;5043;41.766;26.204;2024-03-23T15:36:23;2.72;;;2.38;;
10007;SDS011;5043;41.766;26.204;2024-03-23T15:38:49;2.45;;;2.25;;
10007;SDS011;5043;41.766;26.204;2024-03-23T15:41:15;3.22;;;2.88;;
10007;SDS011;5043;41.766;26.204;2024-03-23T15:43:40;2.63;;;2.20;;